KAST/AST METAR and TAF weather

Enter ICAO airport designator
Station Type Date Time Source
KAST METAR 2022/11/26 09:27 UTC NOAA

KAST 260927Z AUTO 12003KT 1SM BR BKN019 BKN027 OVC040 01/01 A3043 RMK AO2 T00110006


Station Type Date Time Source
KAST Decoded METAR 2022/11/26 09:27 UTC NOAA

PORT OF ASTORIA AIRPORT, OR, United States (KAST) 46-09N 123-53W 3M
Nov 26, 2022 - 04:27 AM EST / 2022.11.26 0927 UTC
Wind: from the ESE (120 degrees) at 3 MPH (3 KT):0
Visibility: 1 mile(s):0
Sky conditions: overcast
Weather: mist
Temperature: 34.0 F (1.1 C)
Dew Point: 33.1 F (0.6 C)
Relative Humidity: 96%
Pressure (altimeter): 30.43 in. Hg (1030 hPa)
ob: KAST 260927Z AUTO 12003KT 1SM BR BKN019 BKN027 OVC040 01/01 A3043 RMK AO2 T00110006
cycle: 9

Station Type Date Time Source
KAST TAF 2022/11/26 06:33 UTC NOAA

TAF KAST 260530Z 2606/2706 VRB03KT P6SM SCT005 BKN025
TEMPO 2606/2609 2SM BR
FM261100 VRB03KT P6SM SCT025 BKN040 BKN120
FM262200 24005KT P6SM BKN050 OVC100
FM270400 24007KT P6SM OVC040

Example: see airport list